createdAt,value
2022-11-16T00:01:57.118Z,99144.63
2022-11-16T00:04:25.031Z,99155.81
2022-11-16T00:06:52.971Z,99148.88
2022-11-16T00:09:23.833Z,99132.41
2022-11-16T00:11:54.154Z,99146.03
2022-11-16T00:14:23.552Z,99132.16
2022-11-16T00:16:51.543Z,99137.28
2022-11-16T00:19:20.836Z,99135.13
2022-11-16T00:21:48.816Z,99131.81
2022-11-16T00:24:17.818Z,99130.66
2022-11-16T00:26:46.567Z,99141.56
2022-11-16T00:29:16.261Z,99124.06
2022-11-16T00:31:45.561Z,99125.03
2022-11-16T00:34:13.522Z,99136.28
2022-11-16T00:36:42.714Z,99130.47
2022-11-16T00:39:12.537Z,99131.66
2022-11-16T00:41:40.460Z,99120.06
2022-11-16T00:44:08.397Z,99128.66
2022-11-16T00:46:36.233Z,99133.47
2022-11-16T00:49:05.362Z,99131.00
2022-11-16T00:51:33.832Z,99127.81
2022-11-16T00:54:04.230Z,99128.28
2022-11-16T00:56:34.294Z,99123.34
2022-11-16T00:59:02.615Z,99122.63
2022-11-16T01:01:30.878Z,99113.03
2022-11-16T01:03:58.766Z,99123.44
2022-11-16T01:06:26.650Z,99125.91
2022-11-16T01:08:54.402Z,99121.63
2022-11-16T01:11:43.677Z,99123.28
2022-11-16T01:14:12.148Z,99116.97
2022-11-16T01:16:39.952Z,99116.81
2022-11-16T01:19:08.625Z,99117.09
2022-11-16T01:21:36.403Z,99119.94
2022-11-16T01:24:04.415Z,99123.41
2022-11-16T01:26:33.567Z,99110.50
2022-11-16T01:29:01.331Z,99119.75
2022-11-16T01:31:33.610Z,99114.28
2022-11-16T01:34:03.957Z,99120.75
2022-11-16T01:36:31.818Z,99117.91
2022-11-16T01:39:01.685Z,99107.69
2022-11-16T01:41:35.922Z,99117.47
2022-11-16T01:44:08.075Z,99114.63
2022-11-16T01:46:45.598Z,99117.47
2022-11-16T01:49:18.720Z,99112.03
2022-11-16T01:51:50.790Z,99118.97
2022-11-16T01:54:19.897Z,99111.69
2022-11-16T01:57:02.739Z,99118.47
2022-11-16T01:59:45.713Z,99121.56
2022-11-16T02:02:17.721Z,99127.53
2022-11-16T02:04:48.417Z,99128.16
2022-11-16T02:07:52.768Z,99132.16
2022-11-16T02:10:36.125Z,99126.88
2022-11-16T02:13:29.611Z,99124.56
2022-11-16T02:16:07.430Z,99123.56
2022-11-16T02:18:40.442Z,99115.63
2022-11-16T02:21:29.914Z,99112.34
2022-11-16T02:24:21.411Z,99091.41
2022-11-16T02:27:31.032Z,99092.94
2022-11-16T02:30:00.374Z,99092.09
2022-11-16T02:32:33.836Z,99094.75
2022-11-16T02:35:07.397Z,99094.44
2022-11-16T02:37:39.241Z,99080.03
2022-11-16T02:40:11.814Z,99080.03
2022-11-16T02:42:44.962Z,99080.84
2022-11-16T02:45:20.263Z,99066.63
2022-11-16T02:47:51.503Z,99056.84
2022-11-16T02:50:23.258Z,99061.69
2022-11-16T02:52:50.975Z,99062.88
2022-11-16T02:55:18.933Z,99061.38
2022-11-16T02:57:54.441Z,99040.91
2022-11-16T03:00:26.228Z,99035.91
2022-11-16T03:03:16.440Z,99041.56
2022-11-16T03:05:49.528Z,99027.50
2022-11-16T03:08:25.064Z,99036.75
2022-11-16T03:11:14.134Z,99026.69
2022-11-16T03:13:42.786Z,99041.56
2022-11-16T03:16:16.917Z,99042.56
2022-11-16T03:18:47.118Z,99032.53
2022-11-16T03:21:24.945Z,99044.38
2022-11-16T03:23:52.869Z,99056.44
2022-11-16T03:26:27.236Z,99059.09
2022-11-16T03:29:01.301Z,99066.03
2022-11-16T03:31:38.920Z,99060.28
2022-11-16T03:34:11.874Z,99077.09
2022-11-16T03:36:42.961Z,99070.97
2022-11-16T03:39:14.666Z,99069.97
2022-11-16T03:41:45.060Z,99069.97
2022-11-16T03:44:16.274Z,99072.63
2022-11-16T03:46:46.229Z,99071.63
2022-11-16T03:49:15.300Z,99069.63
2022-11-16T03:51:44.076Z,99075.75
2022-11-16T03:54:11.886Z,99078.38
2022-11-16T03:56:40.926Z,99077.38
2022-11-16T03:59:09.584Z,99077.56
2022-11-16T04:01:40.464Z,99075.91
2022-11-16T04:04:33.551Z,99083.69
2022-11-16T04:07:19.289Z,99078.56
2022-11-16T04:10:04.578Z,99084.50
2022-11-16T04:12:50.735Z,99091.41
2022-11-16T04:15:36.438Z,99095.09
2022-11-16T04:18:22.423Z,99095.81
2022-11-16T04:21:20.913Z,99108.34
2022-11-16T04:24:07.418Z,99116.09
2022-11-16T04:26:50.086Z,99134.28
2022-11-16T04:29:18.585Z,99140.41
2022-11-16T04:32:04.764Z,99115.75
2022-11-16T04:34:49.964Z,99114.28
2022-11-16T04:37:37.759Z,99116.94
2022-11-16T04:40:08.530Z,99125.22
2022-11-16T04:42:36.523Z,99125.22
2022-11-16T04:45:23.571Z,99127.22
2022-11-16T04:47:53.572Z,99132.50
2022-11-16T04:50:25.381Z,99135.00
2022-11-16T04:52:54.558Z,99116.16
2022-11-16T04:55:22.286Z,99132.50
2022-11-16T04:57:51.901Z,99133.34
2022-11-16T05:00:21.244Z,99132.50
2022-11-16T05:02:50.582Z,99121.16
2022-11-16T05:05:18.463Z,99131.22
2022-11-16T05:07:48.531Z,99132.88
2022-11-16T05:10:23.785Z,99142.28
2022-11-16T05:12:53.383Z,99137.81
2022-11-16T05:15:21.407Z,99134.88
2022-11-16T05:17:51.152Z,99135.22
2022-11-16T05:20:40.650Z,99136.69
2022-11-16T05:23:29.725Z,99122.22
2022-11-16T05:26:02.904Z,99138.50
2022-11-16T05:28:30.852Z,99137.22
2022-11-16T05:30:58.990Z,99142.97
2022-11-16T05:33:29.250Z,99143.50
2022-11-16T05:35:57.086Z,99143.50
2022-11-16T05:38:25.075Z,99148.44
2022-11-16T05:40:58.771Z,99152.22
2022-11-16T05:43:27.883Z,99150.75
2022-11-16T05:46:21.845Z,99155.03
2022-11-16T05:48:49.918Z,99167.31
2022-11-16T05:51:18.521Z,99159.59
2022-11-16T05:53:46.569Z,99162.41
2022-11-16T05:56:19.653Z,99163.22
2022-11-16T05:58:49.140Z,99157.28
2022-11-16T06:01:16.935Z,99155.97
2022-11-16T06:03:44.669Z,99164.28
2022-11-16T06:06:12.516Z,99161.78
2022-11-16T06:08:40.449Z,99173.53
2022-11-16T06:11:11.949Z,99174.75
2022-11-16T06:13:40.540Z,99177.75
2022-11-16T06:16:10.695Z,99172.66
2022-11-16T06:18:39.557Z,99177.44
2022-11-16T06:21:08.073Z,99185.53
2022-11-16T06:23:36.421Z,99190.47
2022-11-16T06:26:05.271Z,99190.66
2022-11-16T06:28:34.516Z,99192.38
2022-11-16T06:31:02.691Z,99199.81
2022-11-16T06:33:35.734Z,99202.94
2022-11-16T06:36:07.794Z,99206.41
2022-11-16T06:38:37.418Z,99209.41
2022-11-16T06:41:05.513Z,99210.22
2022-11-16T06:43:38.989Z,99220.16
2022-11-16T06:46:07.331Z,99222.78
2022-11-16T06:48:36.726Z,99215.84
2022-11-16T06:51:09.626Z,99226.50
2022-11-16T06:56:23.688Z,99228.25
2022-11-16T06:58:56.919Z,99229.41
2022-11-16T07:01:29.957Z,99222.31
2022-11-16T07:04:05.235Z,99227.44
2022-11-16T07:06:33.920Z,99233.88
2022-11-16T07:09:01.658Z,99236.88
2022-11-16T07:11:32.073Z,99248.97
2022-11-16T07:14:00.408Z,99240.06
2022-11-16T07:16:29.916Z,99246.34
2022-11-16T07:19:01.267Z,99248.50
2022-11-16T07:21:32.911Z,99237.94
2022-11-16T07:24:03.370Z,99256.75
2022-11-16T07:26:32.994Z,99261.25
2022-11-16T07:29:07.521Z,99266.88
2022-11-16T07:31:38.694Z,99260.31
2022-11-16T07:35:31.601Z,99268.25
2022-11-16T07:38:54.386Z,99271.72
2022-11-16T07:42:00.951Z,99284.09
2022-11-16T07:45:20.965Z,99278.94
2022-11-16T07:48:42.765Z,99287.41
2022-11-16T07:51:29.112Z,99296.34
2022-11-16T07:54:23.216Z,99294.81
2022-11-16T07:56:53.363Z,99298.44
2022-11-16T07:59:22.759Z,99298.97
2022-11-16T08:01:51.477Z,99294.69
2022-11-16T08:04:19.298Z,99288.06
2022-11-16T08:06:47.186Z,99298.31
2022-11-16T08:09:15.203Z,99307.22
2022-11-16T08:11:43.921Z,99309.88
2022-11-16T08:14:13.036Z,99310.38
2022-11-16T08:16:42.134Z,99315.97
2022-11-16T08:19:14.139Z,99315.66
2022-11-16T08:21:42.110Z,99323.41
2022-11-16T08:24:10.537Z,99317.94
2022-11-16T08:26:42.582Z,99327.72
2022-11-16T08:29:15.140Z,99339.91
2022-11-16T08:31:49.598Z,99344.38
2022-11-16T08:34:21.311Z,99343.22
2022-11-16T08:36:52.699Z,99343.22
2022-11-16T08:39:26.745Z,99345.72
2022-11-16T08:41:54.665Z,99340.25
2022-11-16T08:44:22.509Z,99353.47
2022-11-16T08:46:54.964Z,99358.94
2022-11-16T08:49:36.181Z,99359.91
2022-11-16T08:54:51.456Z,99378.88
2022-11-16T08:57:19.270Z,99383.84
2022-11-16T08:59:50.359Z,99381.84
2022-11-16T09:02:25.306Z,99371.56
2022-11-16T09:04:53.237Z,99387.78
2022-11-16T09:07:21.613Z,99380.88
2022-11-16T09:09:49.450Z,99383.81
2022-11-16T09:12:17.674Z,99387.44
2022-11-16T09:14:45.388Z,99389.94
2022-11-16T09:17:13.090Z,99378.84
2022-11-16T09:19:42.172Z,99390.53
2022-11-16T09:22:09.854Z,99376.16
2022-11-16T09:24:37.566Z,99382.94
2022-11-16T09:27:06.679Z,99387.03
2022-11-16T09:29:34.358Z,99383.72
2022-11-16T09:32:02.207Z,99392.97
2022-11-16T09:34:30.223Z,99388.81
2022-11-16T09:36:59.246Z,99392.47
2022-11-16T09:42:27.325Z,99398.56
2022-11-16T09:45:04.498Z,99403.84
2022-11-16T09:47:42.980Z,99392.41
2022-11-16T09:50:23.409Z,99393.69
2022-11-16T09:52:56.498Z,99408.59
2022-11-16T09:55:28.682Z,99403.19
2022-11-16T09:57:59.464Z,99397.50
2022-11-16T10:00:28.105Z,99401.91
2022-11-16T10:03:03.418Z,99398.38
2022-11-16T10:05:37.474Z,99404.28
2022-11-16T10:08:15.547Z,99404.19
2022-11-16T10:10:51.528Z,99402.94
2022-11-16T10:13:35.842Z,99400.25
2022-11-16T10:16:12.517Z,99394.19
2022-11-16T10:18:53.437Z,99382.53
2022-11-16T10:21:35.016Z,99388.28
2022-11-16T10:24:25.001Z,99382.81
2022-11-16T10:27:04.853Z,99384.84
2022-11-16T10:29:53.238Z,99376.28
2022-11-16T10:32:28.059Z,99382.06
2022-11-16T10:35:01.271Z,99378.59
2022-11-16T10:37:32.568Z,99378.16
2022-11-16T10:40:12.958Z,99378.38
2022-11-16T10:42:40.668Z,99369.06
2022-11-16T10:45:17.824Z,99361.13
2022-11-16T10:47:52.781Z,99358.81
2022-11-16T10:50:32.889Z,99357.81
2022-11-16T10:53:01.641Z,99355.88
2022-11-16T10:55:30.745Z,99359.53
2022-11-16T10:58:00.267Z,99365.94
2022-11-16T11:00:47.058Z,99356.38
2022-11-16T11:03:14.858Z,99357.00
2022-11-16T11:05:53.383Z,99360.88
2022-11-16T11:08:30.534Z,99351.69
2022-11-16T11:11:22.548Z,99352.66
2022-11-16T11:14:05.287Z,99344.78
2022-11-16T11:16:33.235Z,99345.19
2022-11-16T11:19:19.579Z,99339.88
2022-11-16T11:21:48.426Z,99336.13
2022-11-16T11:24:43.447Z,99329.19
2022-11-16T11:27:07.742Z,99310.81
2022-11-16T11:29:37.891Z,99300.00
2022-11-16T11:32:07.713Z,99314.84
2022-11-16T11:34:41.590Z,99312.72
2022-11-16T11:37:16.847Z,99319.59
2022-11-16T11:42:31.594Z,99306.16
2022-11-16T11:45:03.476Z,99307.41
2022-11-16T11:47:58.744Z,99306.16
2022-11-16T11:50:37.865Z,99300.53
2022-11-16T11:53:08.861Z,99297.41
2022-11-16T11:55:36.587Z,99292.19
2022-11-16T11:58:07.761Z,99286.34
2022-11-16T12:00:47.417Z,99286.69
2022-11-16T12:03:37.343Z,99268.19
2022-11-16T12:06:10.835Z,99277.63
2022-11-16T12:08:58.240Z,99274.16
2022-11-16T12:11:34.601Z,99263.44
2022-11-16T12:14:19.215Z,99267.44
2022-11-16T12:16:52.027Z,99267.00
2022-11-16T12:19:38.222Z,99259.22
2022-11-16T12:22:15.651Z,99265.53
2022-11-16T12:25:00.489Z,99255.13
2022-11-16T12:27:40.952Z,99259.91
2022-11-16T12:30:14.098Z,99257.97
2022-11-16T12:33:00.570Z,99262.56
2022-11-16T12:35:48.143Z,99261.91
2022-11-16T12:38:31.006Z,99251.47
2022-11-16T12:41:18.571Z,99263.06
2022-11-16T12:43:54.833Z,99258.78
2022-11-16T12:46:33.684Z,99253.75
2022-11-16T12:49:35.678Z,99255.84
2022-11-16T12:52:19.304Z,99246.69
2022-11-16T12:55:25.447Z,99256.94
2022-11-16T12:58:00.989Z,99239.06
2022-11-16T13:00:32.834Z,99244.00
2022-11-16T13:03:14.063Z,99248.31
2022-11-16T13:05:54.340Z,99242.72
2022-11-16T13:08:34.907Z,99238.69
2022-11-16T13:11:07.970Z,99228.63
2022-11-16T13:13:37.309Z,99231.59
2022-11-16T13:16:07.878Z,99220.78
2022-11-16T13:18:42.489Z,99215.66
2022-11-16T13:21:21.868Z,99217.66
2022-11-16T13:24:01.505Z,99221.34
2022-11-16T13:26:34.475Z,99214.13
2022-11-16T13:29:12.925Z,99213.78
2022-11-16T13:31:45.560Z,99200.59
2022-11-16T13:34:19.067Z,99209.56
2022-11-16T13:36:47.814Z,99211.69
2022-11-16T13:39:22.277Z,99195.00
2022-11-16T13:41:51.806Z,99201.06
2022-11-16T13:44:31.046Z,99194.47
2022-11-16T13:47:04.539Z,99205.91
2022-11-16T13:49:37.874Z,99195.75
2022-11-16T13:52:22.539Z,99199.06
2022-11-16T13:54:54.384Z,99191.09
2022-11-16T13:57:25.903Z,99190.91
2022-11-16T14:00:09.156Z,99186.94
2022-11-16T14:02:38.497Z,99182.28
2022-11-16T14:05:15.782Z,99178.81
2022-11-16T14:07:46.400Z,99185.84
2022-11-16T14:10:55.504Z,99179.03
2022-11-16T14:13:42.204Z,99177.34
2022-11-16T14:16:54.625Z,99194.75
2022-11-16T14:19:52.154Z,99191.91
2022-11-16T14:22:36.289Z,99172.97
2022-11-16T14:25:15.153Z,99191.44
2022-11-16T14:27:50.618Z,99187.78
2022-11-16T14:30:25.412Z,99190.63
2022-11-16T14:32:55.786Z,99182.66
2022-11-16T14:35:33.795Z,99180.19
2022-11-16T14:38:05.598Z,99184.84
2022-11-16T14:40:44.124Z,99185.31
2022-11-16T14:43:19.190Z,99166.84
2022-11-16T14:45:56.231Z,99185.78
2022-11-16T14:48:26.775Z,99179.25
2022-11-16T14:51:06.680Z,99178.00
2022-11-16T14:53:38.568Z,99171.69
2022-11-16T14:56:09.399Z,99157.69
2022-11-16T14:58:37.963Z,99164.09
2022-11-16T15:01:09.638Z,99159.34
2022-11-16T15:03:42.121Z,99157.81
2022-11-16T15:06:10.343Z,99153.69
2022-11-16T15:08:44.415Z,99154.41
2022-11-16T15:11:23.314Z,99151.88
2022-11-16T15:13:51.881Z,99158.81
2022-11-16T15:16:21.591Z,99157.53
2022-11-16T15:19:00.390Z,99144.44
2022-11-16T15:21:29.271Z,99139.69
2022-11-16T15:26:45.138Z,99137.03
2022-11-16T15:29:17.637Z,99137.84
2022-11-16T15:31:47.831Z,99145.81
2022-11-16T15:34:18.365Z,99140.34
2022-11-16T15:36:47.312Z,99139.69
2022-11-16T15:39:20.312Z,99133.31
2022-11-16T15:41:51.614Z,99120.41
2022-11-16T15:44:24.373Z,99115.84
2022-11-16T15:46:56.312Z,99111.94
2022-11-16T15:49:30.323Z,99109.09
2022-11-16T15:51:59.425Z,99107.44
2022-11-16T15:54:29.586Z,99100.50
2022-11-16T15:57:09.820Z,99093.56
2022-11-16T15:59:38.387Z,99088.31
2022-11-16T16:02:19.090Z,99091.34
2022-11-16T16:04:47.050Z,99091.44
2022-11-16T16:07:39.033Z,99077.91
2022-11-16T16:10:15.141Z,99078.72
2022-11-16T16:12:57.685Z,99082.81
2022-11-16T16:15:29.754Z,99079.06
2022-11-16T16:17:59.994Z,99083.91
2022-11-16T16:20:36.096Z,99078.34
2022-11-16T16:23:15.815Z,99066.34
2022-11-16T16:25:49.030Z,99074.38
2022-11-16T16:28:18.172Z,99079.88
2022-11-16T16:30:51.358Z,99083.47
2022-11-16T16:33:28.478Z,99082.88
2022-11-16T16:35:56.190Z,99074.09
2022-11-16T16:38:23.966Z,99067.97
2022-11-16T16:40:51.812Z,99063.22
2022-11-16T16:43:21.420Z,99057.28
2022-11-16T16:45:49.162Z,99059.91
2022-11-16T16:48:16.893Z,99056.63
2022-11-16T16:50:46.137Z,99057.09
2022-11-16T16:53:14.641Z,99056.63
2022-11-16T16:55:43.622Z,99056.97
2022-11-16T16:58:13.177Z,99051.69
2022-11-16T17:00:41.013Z,99052.88
2022-11-16T17:03:08.854Z,99052.50
2022-11-16T17:05:37.226Z,99052.78
2022-11-16T17:08:07.224Z,99053.78
2022-11-16T17:10:34.956Z,99027.81
2022-11-16T17:13:03.791Z,99053.16
2022-11-16T17:15:31.725Z,99054.78
2022-11-16T17:18:00.077Z,99041.22
2022-11-16T17:20:27.905Z,99026.25
2022-11-16T17:22:55.584Z,99041.69
2022-11-16T17:25:24.698Z,99034.38
2022-11-16T17:27:52.509Z,99031.09
2022-11-16T17:30:20.252Z,99024.78
2022-11-16T17:32:47.895Z,99017.22
2022-11-16T17:35:16.008Z,99024.97
2022-11-16T17:37:43.761Z,99027.97
2022-11-16T17:40:11.999Z,99015.91
2022-11-16T17:42:41.019Z,99019.56
2022-11-16T17:45:09.276Z,99016.84
2022-11-16T17:47:36.992Z,99017.84
2022-11-16T17:50:05.078Z,99019.19
2022-11-16T17:52:32.767Z,99015.59
2022-11-16T17:55:00.480Z,99007.03
2022-11-16T17:57:28.181Z,99003.44
2022-11-16T17:59:57.369Z,99004.44
2022-11-16T18:02:25.108Z,98993.03
2022-11-16T18:04:52.905Z,98993.88
2022-11-16T18:07:20.668Z,98993.22
2022-11-16T18:09:48.394Z,98999.88
2022-11-16T18:12:16.075Z,98990.31
2022-11-16T18:14:54.913Z,98985.63
2022-11-16T18:17:34.774Z,98987.00
2022-11-16T18:20:02.570Z,98971.19
2022-11-16T18:22:30.254Z,98988.72
2022-11-16T18:24:57.963Z,98985.81
2022-11-16T18:27:25.864Z,98986.59
2022-11-16T18:29:53.975Z,98966.34
2022-11-16T18:32:21.685Z,98990.00
2022-11-16T18:34:50.914Z,98984.72
2022-11-16T18:37:18.781Z,98986.91
2022-11-16T18:39:46.470Z,98983.78
2022-11-16T18:42:14.233Z,98983.03
2022-11-16T18:44:41.912Z,98983.22
2022-11-16T18:47:09.640Z,98983.50
2022-11-16T18:49:37.543Z,98990.44
2022-11-16T18:52:06.774Z,98986.97
2022-11-16T18:54:34.527Z,98980.84
2022-11-16T18:57:02.278Z,98977.22
2022-11-16T18:59:30.162Z,98982.50
2022-11-16T19:04:41.069Z,98981.56
2022-11-16T19:07:10.256Z,98979.25
2022-11-16T19:09:38.158Z,98972.16
2022-11-16T19:12:06.275Z,98971.16
2022-11-16T19:14:34.120Z,98964.16
2022-11-16T19:17:03.884Z,98962.16
2022-11-16T19:19:31.666Z,98964.81
2022-11-16T19:21:59.391Z,98955.31
2022-11-16T19:24:28.485Z,98957.88
2022-11-16T19:26:56.252Z,98946.75
2022-11-16T19:29:24.007Z,98958.56
2022-11-16T19:31:51.763Z,98944.69
2022-11-16T19:34:22.406Z,98945.34
2022-11-16T19:36:50.644Z,98949.63
2022-11-16T19:39:18.386Z,98954.28
2022-11-16T19:41:51.316Z,98945.03
2022-11-16T19:44:20.002Z,98945.22
2022-11-16T19:46:47.692Z,98938.75
2022-11-16T19:49:20.196Z,98942.03
2022-11-16T19:51:48.646Z,98942.94
2022-11-16T19:54:16.421Z,98930.47
2022-11-16T19:56:49.285Z,98935.38
2022-11-16T19:59:22.410Z,98925.16
2022-11-16T20:01:50.159Z,98920.59
2022-11-16T20:04:17.864Z,98917.47
2022-11-16T20:06:45.660Z,98904.25
2022-11-16T20:09:13.354Z,98905.63
2022-11-16T20:11:46.370Z,98900.44
2022-11-16T20:14:16.343Z,98889.97
2022-11-16T20:16:50.886Z,98885.72
2022-11-16T20:19:20.654Z,98877.44
2022-11-16T20:21:53.626Z,98877.63
2022-11-16T20:24:21.561Z,98871.81
2022-11-16T20:26:50.070Z,98866.41
2022-11-16T20:29:19.548Z,98852.34
2022-11-16T20:31:48.758Z,98840.78
2022-11-16T20:34:20.062Z,98828.28
2022-11-16T20:36:50.719Z,98835.22
2022-11-16T20:39:20.662Z,98833.22
2022-11-16T20:41:49.025Z,98841.53
2022-11-16T20:44:21.052Z,98840.25
2022-11-16T20:46:52.105Z,98827.66
2022-11-16T20:49:19.938Z,98833.31
2022-11-16T20:51:48.386Z,98836.59
2022-11-16T20:54:16.194Z,98833.94
2022-11-16T20:56:44.486Z,98837.41
2022-11-16T20:59:12.317Z,98826.84
2022-11-16T21:01:41.543Z,98828.28
2022-11-16T21:04:10.941Z,98827.00
2022-11-16T21:06:38.779Z,98813.88
2022-11-16T21:09:06.631Z,98822.38
2022-11-16T21:11:58.442Z,98816.44
2022-11-16T21:14:25.456Z,98818.06
2022-11-16T21:16:53.252Z,98808.84
2022-11-16T21:19:22.474Z,98800.91
2022-11-16T21:21:50.331Z,98801.91
2022-11-16T21:24:18.243Z,98799.63
2022-11-16T21:26:46.050Z,98787.44
2022-11-16T21:29:13.948Z,98777.03
2022-11-16T21:31:41.860Z,98773.81
2022-11-16T21:34:09.841Z,98763.34
2022-11-16T21:36:39.326Z,98761.59
2022-11-16T21:39:07.358Z,98755.94
2022-11-16T21:41:35.160Z,98755.13
2022-11-16T21:44:02.919Z,98740.38
2022-11-16T21:46:30.662Z,98744.66
2022-11-16T21:48:59.011Z,98722.41
2022-11-16T21:51:27.906Z,98714.56
2022-11-16T21:54:00.258Z,98719.56
2022-11-16T21:56:28.106Z,98728.13
2022-11-16T21:58:56.263Z,98720.09
2022-11-16T22:01:49.007Z,98713.47
2022-11-16T22:04:34.412Z,98710.81
2022-11-16T22:07:20.086Z,98691.75
2022-11-16T22:09:51.250Z,98689.75
2022-11-16T22:12:22.455Z,98696.66
2022-11-16T22:14:51.140Z,98667.16
2022-11-16T22:17:18.968Z,98694.63
2022-11-16T22:19:49.587Z,98678.75
2022-11-16T22:22:17.504Z,98680.84
2022-11-16T22:24:47.454Z,98683.06
2022-11-16T22:27:19.655Z,98681.69
2022-11-16T22:29:47.445Z,98650.16
2022-11-16T22:32:15.243Z,98662.06
2022-11-16T22:34:50.932Z,98655.59
2022-11-16T22:37:19.062Z,98640.91
2022-11-16T22:39:46.810Z,98644.78
2022-11-16T22:42:14.542Z,98642.19
2022-11-16T22:44:43.716Z,98630.59
2022-11-16T22:47:11.547Z,98632.78
2022-11-16T22:49:39.303Z,98625.44
2022-11-16T22:52:07.108Z,98612.41
2022-11-16T22:54:37.825Z,98595.25
2022-11-16T22:57:05.723Z,98600.53
2022-11-16T22:59:34.499Z,98600.16
2022-11-16T23:02:05.047Z,98587.94
2022-11-16T23:04:33.041Z,98569.16
2022-11-16T23:07:00.922Z,98569.63
2022-11-16T23:09:28.837Z,98571.63
2022-11-16T23:12:14.091Z,98559.38
2022-11-16T23:14:59.310Z,98550.44
2022-11-16T23:17:28.593Z,98542.28
2022-11-16T23:20:17.611Z,98538.72
2022-11-16T23:22:59.666Z,98526.84
2022-11-16T23:25:44.837Z,98527.22
2022-11-16T23:28:15.600Z,98521.94
2022-11-16T23:30:43.496Z,98518.69
2022-11-16T23:33:12.970Z,98516.66
2022-11-16T23:35:40.828Z,98513.00
2022-11-16T23:38:09.838Z,98506.91
2022-11-16T23:40:39.829Z,98486.97
2022-11-16T23:43:26.013Z,98481.78
2022-11-16T23:45:53.730Z,98485.31
2022-11-16T23:48:22.828Z,98474.75
2022-11-16T23:50:50.527Z,98456.03
2022-11-16T23:53:18.260Z,98449.50
2022-11-16T23:55:47.535Z,98422.69
2022-11-16T23:58:15.805Z,98427.38
